Ana Sayfa
METAR-TAF:

METAR-TAF

Havaalanları :

Pauls Valley, Oklahoma, Amerika Birleşik Devletleri

Enlem: 34-42-40N, Boylam: 097-13-24W, yükseklik: 295 m

Güncel hava durumu gözlemi

Rapor saat 15:15 UTC de 28 dakika önce yapıldı.
Rüzgar güneydan 9 kt
Sıcaklık 32°C
Nem 63%
Basınç 1013 hPa
Görüş mesafesi: 16.1 km
6000 ft yükseklikte parçalı bulutlu

METAR: KPVJ 251515Z AUTO 19009KT 10SM SCT060 32/24 A2992 RMK AO2 T03160238

Saat: 10:43 (15:43 UTC)


TAF: eksik

4.000'den fazla havaalanı için hava durumu gözlemleri ve tahminleri (METAR ve TAF raporları).

Kullanılabilir istasyonlar harita üzerinde sarı ve kırmızı noktalarla gösterilir.

İstasyonun adını görmek için fareyi noktanın üzerinde gezdirin.

Sonrasında hava gözlem ve tahminlerini görmek için tıklayın.

Haritayı değiştirmek için: yaklaştırmak için siyah artı işaretli yeşil düğmeye ve uzaklaştırmak için de eksi işaretli düğmeye hızla tıklayın; bitişik haritalar için yeşil okları kullanın.


METAR-TAF: